sensor_id;sensor_type;location;lat;lon;timestamp;P1;durP1;ratioP1;P2;durP2;ratioP2
3712;SDS011;1872;51.406;6.856;2023-04-24T00:00:30;2.00;;;1.90;;
3712;SDS011;1872;51.406;6.856;2023-04-24T00:02:56;3.03;;;2.23;;
3712;SDS011;1872;51.406;6.856;2023-04-24T00:05:22;2.20;;;2.00;;
3712;SDS011;1872;51.406;6.856;2023-04-24T00:07:49;2.37;;;2.17;;
3712;SDS011;1872;51.406;6.856;2023-04-24T00:10:17;3.97;;;2.00;;
3712;SDS011;1872;51.406;6.856;2023-04-24T00:12:43;1.77;;;1.67;;
3712;SDS011;1872;51.406;6.856;2023-04-24T00:15:09;2.50;;;2.40;;
3712;SDS011;1872;51.406;6.856;2023-04-24T00:17:35;1.97;;;1.87;;
3712;SDS011;1872;51.406;6.856;2023-04-24T00:20:01;4.20;;;2.33;;
3712;SDS011;1872;51.406;6.856;2023-04-24T00:22:29;2.30;;;2.20;;
3712;SDS011;1872;51.406;6.856;2023-04-24T00:24:55;2.17;;;1.97;;
3712;SDS011;1872;51.406;6.856;2023-04-24T00:27:21;2.60;;;2.40;;
3712;SDS011;1872;51.406;6.856;2023-04-24T00:29:47;2.43;;;2.23;;
3712;SDS011;1872;51.406;6.856;2023-04-24T00:32:13;2.83;;;2.63;;
3712;SDS011;1872;51.406;6.856;2023-04-24T00:34:39;2.93;;;2.60;;
3712;SDS011;1872;51.406;6.856;2023-04-24T00:37:05;2.80;;;2.60;;
3712;SDS011;1872;51.406;6.856;2023-04-24T00:39:31;2.60;;;2.47;;
3712;SDS011;1872;51.406;6.856;2023-04-24T00:41:57;3.00;;;2.70;;
3712;SDS011;1872;51.406;6.856;2023-04-24T00:44:23;4.47;;;2.80;;
3712;SDS011;1872;51.406;6.856;2023-04-24T00:46:49;2.70;;;2.50;;
3712;SDS011;1872;51.406;6.856;2023-04-24T00:49:19;2.93;;;2.37;;
3712;SDS011;1872;51.406;6.856;2023-04-24T00:51:45;2.63;;;2.43;;
3712;SDS011;1872;51.406;6.856;2023-04-24T00:54:12;2.90;;;2.20;;
3712;SDS011;1872;51.406;6.856;2023-04-24T00:56:38;2.30;;;2.10;;
3712;SDS011;1872;51.406;6.856;2023-04-24T00:59:05;2.50;;;2.30;;
3712;SDS011;1872;51.406;6.856;2023-04-24T01:01:31;2.60;;;2.40;;
3712;SDS011;1872;51.406;6.856;2023-04-24T01:03:57;3.63;;;3.33;;
3712;SDS011;1872;51.406;6.856;2023-04-24T01:06:23;3.50;;;3.20;;
3712;SDS011;1872;51.406;6.856;2023-04-24T01:08:53;3.43;;;3.13;;
3712;SDS011;1872;51.406;6.856;2023-04-24T01:11:20;6.67;;;4.03;;
3712;SDS011;1872;51.406;6.856;2023-04-24T01:13:47;5.17;;;4.37;;
3712;SDS011;1872;51.406;6.856;2023-04-24T01:16:13;5.93;;;5.23;;
3712;SDS011;1872;51.406;6.856;2023-04-24T01:18:42;5.83;;;4.57;;
3712;SDS011;1872;51.406;6.856;2023-04-24T01:21:09;5.70;;;5.00;;
3712;SDS011;1872;51.406;6.856;2023-04-24T01:23:38;5.53;;;5.07;;
3712;SDS011;1872;51.406;6.856;2023-04-24T01:26:03;6.93;;;5.53;;
3712;SDS011;1872;51.406;6.856;2023-04-24T01:28:29;5.43;;;4.93;;
3712;SDS011;1872;51.406;6.856;2023-04-24T01:30:55;5.30;;;4.80;;
3712;SDS011;1872;51.406;6.856;2023-04-24T01:33:21;5.80;;;4.43;;
3712;SDS011;1872;51.406;6.856;2023-04-24T01:35:47;5.03;;;4.57;;
3712;SDS011;1872;51.406;6.856;2023-04-24T01:38:14;4.63;;;4.23;;
3712;SDS011;1872;51.406;6.856;2023-04-24T01:40:39;5.20;;;4.67;;
3712;SDS011;1872;51.406;6.856;2023-04-24T01:43:05;7.30;;;6.10;;
3712;SDS011;1872;51.406;6.856;2023-04-24T01:45:31;8.77;;;6.00;;
3712;SDS011;1872;51.406;6.856;2023-04-24T01:47:56;7.63;;;5.33;;
3712;SDS011;1872;51.406;6.856;2023-04-24T01:50:22;6.33;;;5.17;;
3712;SDS011;1872;51.406;6.856;2023-04-24T01:52:48;6.30;;;5.23;;
3712;SDS011;1872;51.406;6.856;2023-04-24T01:55:13;5.43;;;4.83;;
3712;SDS011;1872;51.406;6.856;2023-04-24T01:57:39;6.37;;;5.10;;
3712;SDS011;1872;51.406;6.856;2023-04-24T02:00:05;8.00;;;5.53;;
3712;SDS011;1872;51.406;6.856;2023-04-24T02:02:32;7.20;;;5.70;;
3712;SDS011;1872;51.406;6.856;2023-04-24T02:04:58;8.20;;;6.37;;
3712;SDS011;1872;51.406;6.856;2023-04-24T02:07:24;8.40;;;6.27;;
3712;SDS011;1872;51.406;6.856;2023-04-24T02:09:50;7.37;;;6.00;;
3712;SDS011;1872;51.406;6.856;2023-04-24T02:12:15;7.43;;;6.03;;
3712;SDS011;1872;51.406;6.856;2023-04-24T02:14:42;9.37;;;6.50;;
3712;SDS011;1872;51.406;6.856;2023-04-24T02:17:08;10.50;;;7.80;;
3712;SDS011;1872;51.406;6.856;2023-04-24T02:19:34;8.70;;;7.00;;
3712;SDS011;1872;51.406;6.856;2023-04-24T02:21:59;10.10;;;7.60;;
3712;SDS011;1872;51.406;6.856;2023-04-24T02:24:25;9.67;;;7.10;;
3712;SDS011;1872;51.406;6.856;2023-04-24T02:26:51;9.63;;;6.93;;
3712;SDS011;1872;51.406;6.856;2023-04-24T02:29:16;14.83;;;8.23;;
3712;SDS011;1872;51.406;6.856;2023-04-24T02:31:42;11.00;;;7.60;;
3712;SDS011;1872;51.406;6.856;2023-04-24T02:34:08;10.00;;;7.93;;
3712;SDS011;1872;51.406;6.856;2023-04-24T02:36:34;10.57;;;8.60;;
3712;SDS011;1872;51.406;6.856;2023-04-24T02:39:00;12.00;;;8.40;;
3712;SDS011;1872;51.406;6.856;2023-04-24T02:41:26;12.33;;;8.87;;
3712;SDS011;1872;51.406;6.856;2023-04-24T02:43:56;11.53;;;8.27;;
3712;SDS011;1872;51.406;6.856;2023-04-24T02:46:25;11.00;;;8.70;;
3712;SDS011;1872;51.406;6.856;2023-04-24T02:48:50;14.30;;;9.40;;
3712;SDS011;1872;51.406;6.856;2023-04-24T02:51:16;9.73;;;8.30;;
3712;SDS011;1872;51.406;6.856;2023-04-24T02:53:42;12.37;;;8.90;;
3712;SDS011;1872;51.406;6.856;2023-04-24T02:56:08;12.87;;;9.80;;
3712;SDS011;1872;51.406;6.856;2023-04-24T02:58:37;13.07;;;9.17;;
3712;SDS011;1872;51.406;6.856;2023-04-24T03:01:03;13.33;;;10.70;;
3712;SDS011;1872;51.406;6.856;2023-04-24T03:03:28;13.80;;;9.17;;
3712;SDS011;1872;51.406;6.856;2023-04-24T03:05:54;12.87;;;10.20;;
3712;SDS011;1872;51.406;6.856;2023-04-24T03:08:20;16.40;;;10.77;;
3712;SDS011;1872;51.406;6.856;2023-04-24T03:10:46;17.90;;;11.97;;
3712;SDS011;1872;51.406;6.856;2023-04-24T03:13:11;15.80;;;11.10;;
3712;SDS011;1872;51.406;6.856;2023-04-24T03:15:37;11.80;;;9.70;;
3712;SDS011;1872;51.406;6.856;2023-04-24T03:18:02;12.83;;;10.37;;
3712;SDS011;1872;51.406;6.856;2023-04-24T03:20:28;15.27;;;11.20;;
3712;SDS011;1872;51.406;6.856;2023-04-24T03:22:54;14.40;;;10.33;;
3712;SDS011;1872;51.406;6.856;2023-04-24T03:25:19;19.90;;;11.33;;
3712;SDS011;1872;51.406;6.856;2023-04-24T03:27:45;18.30;;;11.97;;
3712;SDS011;1872;51.406;6.856;2023-04-24T03:30:11;17.13;;;11.13;;
3712;SDS011;1872;51.406;6.856;2023-04-24T03:32:36;17.33;;;12.03;;
3712;SDS011;1872;51.406;6.856;2023-04-24T03:35:04;17.20;;;12.30;;
3712;SDS011;1872;51.406;6.856;2023-04-24T03:37:32;13.40;;;10.93;;
3712;SDS011;1872;51.406;6.856;2023-04-24T03:39:57;15.70;;;10.77;;
3712;SDS011;1872;51.406;6.856;2023-04-24T03:42:23;15.50;;;11.37;;
3712;SDS011;1872;51.406;6.856;2023-04-24T03:44:48;16.83;;;12.63;;
3712;SDS011;1872;51.406;6.856;2023-04-24T03:47:14;14.47;;;11.57;;
3712;SDS011;1872;51.406;6.856;2023-04-24T03:49:40;14.90;;;11.33;;
3712;SDS011;1872;51.406;6.856;2023-04-24T03:52:05;15.20;;;11.17;;
3712;SDS011;1872;51.406;6.856;2023-04-24T03:54:31;15.73;;;11.87;;
3712;SDS011;1872;51.406;6.856;2023-04-24T03:56:56;11.97;;;9.77;;
3712;SDS011;1872;51.406;6.856;2023-04-24T03:59:22;15.60;;;10.83;;
3712;SDS011;1872;51.406;6.856;2023-04-24T04:01:48;14.67;;;11.23;;
3712;SDS011;1872;51.406;6.856;2023-04-24T04:04:13;16.33;;;11.30;;
3712;SDS011;1872;51.406;6.856;2023-04-24T04:06:39;15.03;;;10.97;;
3712;SDS011;1872;51.406;6.856;2023-04-24T04:09:05;14.30;;;11.70;;
3712;SDS011;1872;51.406;6.856;2023-04-24T04:11:30;14.27;;;10.40;;
3712;SDS011;1872;51.406;6.856;2023-04-24T04:13:56;14.87;;;11.43;;
3712;SDS011;1872;51.406;6.856;2023-04-24T04:16:22;17.07;;;10.90;;
3712;SDS011;1872;51.406;6.856;2023-04-24T04:18:48;13.60;;;10.60;;
3712;SDS011;1872;51.406;6.856;2023-04-24T04:21:13;15.90;;;10.60;;
3712;SDS011;1872;51.406;6.856;2023-04-24T04:23:39;15.73;;;11.10;;
3712;SDS011;1872;51.406;6.856;2023-04-24T04:26:05;12.33;;;9.87;;
3712;SDS011;1872;51.406;6.856;2023-04-24T04:28:31;13.40;;;10.00;;
3712;SDS011;1872;51.406;6.856;2023-04-24T04:30:57;14.10;;;10.23;;
3712;SDS011;1872;51.406;6.856;2023-04-24T04:33:26;16.07;;;11.30;;
3712;SDS011;1872;51.406;6.856;2023-04-24T04:36:00;13.10;;;10.70;;
3712;SDS011;1872;51.406;6.856;2023-04-24T04:38:34;14.07;;;9.70;;
3712;SDS011;1872;51.406;6.856;2023-04-24T04:41:14;15.43;;;10.67;;
3712;SDS011;1872;51.406;6.856;2023-04-24T04:43:41;13.70;;;10.17;;
3712;SDS011;1872;51.406;6.856;2023-04-24T04:46:07;12.93;;;10.70;;
3712;SDS011;1872;51.406;6.856;2023-04-24T04:48:35;15.40;;;10.40;;
3712;SDS011;1872;51.406;6.856;2023-04-24T04:51:01;17.00;;;10.97;;
3712;SDS011;1872;51.406;6.856;2023-04-24T04:53:27;15.70;;;10.13;;
3712;SDS011;1872;51.406;6.856;2023-04-24T04:55:52;14.70;;;10.50;;
3712;SDS011;1872;51.406;6.856;2023-04-24T04:58:18;15.10;;;10.00;;
3712;SDS011;1872;51.406;6.856;2023-04-24T05:00:43;15.27;;;10.33;;
3712;SDS011;1872;51.406;6.856;2023-04-24T05:03:09;15.50;;;10.10;;
3712;SDS011;1872;51.406;6.856;2023-04-24T05:05:35;11.97;;;9.63;;
3712;SDS011;1872;51.406;6.856;2023-04-24T05:08:00;15.50;;;10.60;;
3712;SDS011;1872;51.406;6.856;2023-04-24T05:10:26;12.93;;;9.90;;
3712;SDS011;1872;51.406;6.856;2023-04-24T05:12:52;14.20;;;9.80;;
3712;SDS011;1872;51.406;6.856;2023-04-24T05:15:17;12.50;;;9.40;;
3712;SDS011;1872;51.406;6.856;2023-04-24T05:17:43;12.90;;;10.17;;
3712;SDS011;1872;51.406;6.856;2023-04-24T05:20:09;14.23;;;10.57;;
3712;SDS011;1872;51.406;6.856;2023-04-24T05:22:34;16.90;;;11.30;;
3712;SDS011;1872;51.406;6.856;2023-04-24T05:25:01;14.77;;;10.10;;
3712;SDS011;1872;51.406;6.856;2023-04-24T05:27:27;14.37;;;10.13;;
3712;SDS011;1872;51.406;6.856;2023-04-24T05:29:53;13.60;;;9.83;;
3712;SDS011;1872;51.406;6.856;2023-04-24T05:32:18;14.53;;;11.30;;
3712;SDS011;1872;51.406;6.856;2023-04-24T05:34:44;14.17;;;11.57;;
3712;SDS011;1872;51.406;6.856;2023-04-24T05:37:10;14.20;;;11.03;;
3712;SDS011;1872;51.406;6.856;2023-04-24T05:39:36;16.20;;;10.70;;
3712;SDS011;1872;51.406;6.856;2023-04-24T05:42:02;17.73;;;11.00;;
3712;SDS011;1872;51.406;6.856;2023-04-24T05:44:29;14.40;;;11.10;;
3712;SDS011;1872;51.406;6.856;2023-04-24T05:46:55;15.03;;;11.20;;
3712;SDS011;1872;51.406;6.856;2023-04-24T05:49:21;16.10;;;10.93;;
3712;SDS011;1872;51.406;6.856;2023-04-24T05:51:47;18.20;;;11.30;;
3712;SDS011;1872;51.406;6.856;2023-04-24T05:54:12;12.47;;;10.13;;
3712;SDS011;1872;51.406;6.856;2023-04-24T05:56:38;14.63;;;11.30;;
3712;SDS011;1872;51.406;6.856;2023-04-24T05:59:05;14.63;;;9.73;;
3712;SDS011;1872;51.406;6.856;2023-04-24T06:01:30;14.30;;;10.30;;
3712;SDS011;1872;51.406;6.856;2023-04-24T06:03:56;16.00;;;10.13;;
3712;SDS011;1872;51.406;6.856;2023-04-24T06:06:23;16.10;;;10.40;;
3712;SDS011;1872;51.406;6.856;2023-04-24T06:08:49;12.10;;;8.93;;
3712;SDS011;1872;51.406;6.856;2023-04-24T06:11:14;13.30;;;9.17;;
3712;SDS011;1872;51.406;6.856;2023-04-24T06:13:40;14.30;;;9.73;;
3712;SDS011;1872;51.406;6.856;2023-04-24T06:16:06;18.10;;;11.53;;
3712;SDS011;1872;51.406;6.856;2023-04-24T06:18:32;13.83;;;10.03;;
3712;SDS011;1872;51.406;6.856;2023-04-24T06:20:57;10.53;;;8.70;;
3712;SDS011;1872;51.406;6.856;2023-04-24T06:23:23;11.27;;;9.23;;
3712;SDS011;1872;51.406;6.856;2023-04-24T06:25:48;13.30;;;9.37;;
3712;SDS011;1872;51.406;6.856;2023-04-24T06:28:15;14.13;;;9.57;;
3712;SDS011;1872;51.406;6.856;2023-04-24T06:30:40;11.73;;;9.17;;
3712;SDS011;1872;51.406;6.856;2023-04-24T06:33:06;14.20;;;9.50;;
3712;SDS011;1872;51.406;6.856;2023-04-24T06:35:32;10.63;;;8.60;;
3712;SDS011;1872;51.406;6.856;2023-04-24T06:37:57;12.20;;;9.50;;
3712;SDS011;1872;51.406;6.856;2023-04-24T06:40:23;14.07;;;8.90;;
3712;SDS011;1872;51.406;6.856;2023-04-24T06:42:49;12.43;;;9.40;;
3712;SDS011;1872;51.406;6.856;2023-04-24T06:45:15;13.83;;;9.40;;
3712;SDS011;1872;51.406;6.856;2023-04-24T06:47:40;13.93;;;8.23;;
3712;SDS011;1872;51.406;6.856;2023-04-24T06:50:06;10.97;;;7.80;;
3712;SDS011;1872;51.406;6.856;2023-04-24T06:52:32;10.50;;;8.00;;
3712;SDS011;1872;51.406;6.856;2023-04-24T06:55:04;10.83;;;8.23;;
3712;SDS011;1872;51.406;6.856;2023-04-24T06:57:30;9.73;;;7.60;;
3712;SDS011;1872;51.406;6.856;2023-04-24T06:59:56;9.23;;;7.63;;
3712;SDS011;1872;51.406;6.856;2023-04-24T07:02:22;9.90;;;8.30;;
3712;SDS011;1872;51.406;6.856;2023-04-24T07:04:48;8.70;;;7.57;;
3712;SDS011;1872;51.406;6.856;2023-04-24T07:07:14;9.27;;;7.07;;
3712;SDS011;1872;51.406;6.856;2023-04-24T07:09:40;8.87;;;7.00;;
3712;SDS011;1872;51.406;6.856;2023-04-24T07:12:10;6.37;;;5.70;;
3712;SDS011;1872;51.406;6.856;2023-04-24T07:14:37;7.30;;;6.10;;
3712;SDS011;1872;51.406;6.856;2023-04-24T07:17:03;6.73;;;6.03;;
3712;SDS011;1872;51.406;6.856;2023-04-24T07:19:30;9.10;;;5.77;;
3712;SDS011;1872;51.406;6.856;2023-04-24T07:21:56;5.57;;;5.07;;
3712;SDS011;1872;51.406;6.856;2023-04-24T07:24:23;5.43;;;4.93;;
3712;SDS011;1872;51.406;6.856;2023-04-24T07:26:50;8.00;;;5.47;;
3712;SDS011;1872;51.406;6.856;2023-04-24T07:29:17;6.23;;;5.20;;
3712;SDS011;1872;51.406;6.856;2023-04-24T07:31:43;4.80;;;4.10;;
3712;SDS011;1872;51.406;6.856;2023-04-24T07:34:08;5.03;;;4.10;;
3712;SDS011;1872;51.406;6.856;2023-04-24T07:36:34;3.93;;;3.13;;
3712;SDS011;1872;51.406;6.856;2023-04-24T07:39:00;3.60;;;3.20;;
3712;SDS011;1872;51.406;6.856;2023-04-24T07:41:26;2.73;;;2.30;;
3712;SDS011;1872;51.406;6.856;2023-04-24T07:43:53;3.10;;;2.50;;
3712;SDS011;1872;51.406;6.856;2023-04-24T07:46:18;2.00;;;1.90;;
3712;SDS011;1872;51.406;6.856;2023-04-24T07:48:45;1.60;;;1.50;;
3712;SDS011;1872;51.406;6.856;2023-04-24T07:51:13;3.20;;;1.83;;
3712;SDS011;1872;51.406;6.856;2023-04-24T07:53:39;1.50;;;1.40;;
3712;SDS011;1872;51.406;6.856;2023-04-24T07:56:05;1.80;;;1.70;;
3712;SDS011;1872;51.406;6.856;2023-04-24T07:58:31;2.00;;;1.70;;
3712;SDS011;1872;51.406;6.856;2023-04-24T08:00:57;1.80;;;1.70;;
3712;SDS011;1872;51.406;6.856;2023-04-24T08:03:22;1.60;;;1.53;;
3712;SDS011;1872;51.406;6.856;2023-04-24T08:05:49;1.40;;;1.30;;
3712;SDS011;1872;51.406;6.856;2023-04-24T08:08:16;3.00;;;2.20;;
3712;SDS011;1872;51.406;6.856;2023-04-24T08:10:41;1.60;;;1.50;;
3712;SDS011;1872;51.406;6.856;2023-04-24T08:13:07;5.87;;;1.60;;
3712;SDS011;1872;51.406;6.856;2023-04-24T08:15:33;1.97;;;1.87;;
3712;SDS011;1872;51.406;6.856;2023-04-24T08:17:58;2.20;;;2.00;;
3712;SDS011;1872;51.406;6.856;2023-04-24T08:20:24;1.73;;;1.63;;
3712;SDS011;1872;51.406;6.856;2023-04-24T08:22:50;1.80;;;1.70;;
3712;SDS011;1872;51.406;6.856;2023-04-24T08:25:16;1.80;;;1.70;;
3712;SDS011;1872;51.406;6.856;2023-04-24T08:27:42;2.07;;;1.90;;
3712;SDS011;1872;51.406;6.856;2023-04-24T08:30:08;2.87;;;1.90;;
3712;SDS011;1872;51.406;6.856;2023-04-24T08:32:34;3.00;;;2.37;;
3712;SDS011;1872;51.406;6.856;2023-04-24T08:35:01;3.27;;;2.97;;
3712;SDS011;1872;51.406;6.856;2023-04-24T08:37:27;4.33;;;3.20;;
3712;SDS011;1872;51.406;6.856;2023-04-24T08:39:52;3.17;;;2.87;;
3712;SDS011;1872;51.406;6.856;2023-04-24T08:42:20;3.83;;;3.40;;
3712;SDS011;1872;51.406;6.856;2023-04-24T08:44:47;4.27;;;2.63;;
3712;SDS011;1872;51.406;6.856;2023-04-24T08:47:14;3.10;;;2.77;;
3712;SDS011;1872;51.406;6.856;2023-04-24T08:49:40;2.87;;;2.43;;
3712;SDS011;1872;51.406;6.856;2023-04-24T08:52:06;2.47;;;2.30;;
3712;SDS011;1872;51.406;6.856;2023-04-24T08:54:35;2.67;;;2.47;;
3712;SDS011;1872;51.406;6.856;2023-04-24T08:57:02;2.50;;;2.30;;
3712;SDS011;1872;51.406;6.856;2023-04-24T08:59:29;2.23;;;2.13;;
3712;SDS011;1872;51.406;6.856;2023-04-24T09:01:55;2.77;;;2.47;;
3712;SDS011;1872;51.406;6.856;2023-04-24T09:04:22;2.77;;;2.57;;
3712;SDS011;1872;51.406;6.856;2023-04-24T09:06:49;3.53;;;3.10;;
3712;SDS011;1872;51.406;6.856;2023-04-24T09:09:25;3.53;;;3.23;;
3712;SDS011;1872;51.406;6.856;2023-04-24T09:11:54;3.53;;;3.20;;
3712;SDS011;1872;51.406;6.856;2023-04-24T09:14:20;5.40;;;4.80;;
3712;SDS011;1872;51.406;6.856;2023-04-24T09:16:48;5.20;;;4.50;;
3712;SDS011;1872;51.406;6.856;2023-04-24T09:19:14;6.60;;;4.77;;
3712;SDS011;1872;51.406;6.856;2023-04-24T09:21:39;8.90;;;5.97;;
3712;SDS011;1872;51.406;6.856;2023-04-24T09:24:08;6.97;;;5.80;;
3712;SDS011;1872;51.406;6.856;2023-04-24T09:26:43;9.60;;;7.43;;
3712;SDS011;1872;51.406;6.856;2023-04-24T09:29:13;9.13;;;6.63;;
3712;SDS011;1872;51.406;6.856;2023-04-24T09:31:42;11.13;;;7.07;;
3712;SDS011;1872;51.406;6.856;2023-04-24T09:34:09;8.30;;;6.90;;
3712;SDS011;1872;51.406;6.856;2023-04-24T09:36:35;9.63;;;7.10;;
3712;SDS011;1872;51.406;6.856;2023-04-24T09:39:06;6.77;;;6.07;;
3712;SDS011;1872;51.406;6.856;2023-04-24T09:41:43;10.73;;;7.03;;
3712;SDS011;1872;51.406;6.856;2023-04-24T09:44:13;9.97;;;7.17;;
3712;SDS011;1872;51.406;6.856;2023-04-24T09:46:45;12.10;;;7.60;;
3712;SDS011;1872;51.406;6.856;2023-04-24T09:49:14;12.13;;;7.50;;
3712;SDS011;1872;51.406;6.856;2023-04-24T09:51:41;8.10;;;6.93;;
3712;SDS011;1872;51.406;6.856;2023-04-24T09:54:14;12.40;;;8.00;;
3712;SDS011;1872;51.406;6.856;2023-04-24T09:56:46;13.53;;;7.53;;
3712;SDS011;1872;51.406;6.856;2023-04-24T09:59:13;9.33;;;7.80;;
3712;SDS011;1872;51.406;6.856;2023-04-24T10:01:40;10.70;;;8.00;;
3712;SDS011;1872;51.406;6.856;2023-04-24T10:04:19;11.17;;;8.13;;
3712;SDS011;1872;51.406;6.856;2023-04-24T10:06:47;12.00;;;8.50;;
3712;SDS011;1872;51.406;6.856;2023-04-24T10:09:14;13.00;;;7.27;;
3712;SDS011;1872;51.406;6.856;2023-04-24T10:11:42;9.80;;;7.63;;
3712;SDS011;1872;51.406;6.856;2023-04-24T10:14:14;8.23;;;6.67;;
3712;SDS011;1872;51.406;6.856;2023-04-24T10:16:43;9.53;;;7.07;;
3712;SDS011;1872;51.406;6.856;2023-04-24T10:19:09;10.50;;;7.10;;
3712;SDS011;1872;51.406;6.856;2023-04-24T10:21:36;9.93;;;7.10;;
3712;SDS011;1872;51.406;6.856;2023-04-24T10:24:07;11.90;;;7.23;;
3712;SDS011;1872;51.406;6.856;2023-04-24T10:26:34;9.17;;;7.10;;
3712;SDS011;1872;51.406;6.856;2023-04-24T10:29:00;11.40;;;7.73;;
3712;SDS011;1872;51.406;6.856;2023-04-24T10:31:27;14.33;;;8.47;;
3712;SDS011;1872;51.406;6.856;2023-04-24T10:33:55;11.37;;;6.70;;
3712;SDS011;1872;51.406;6.856;2023-04-24T10:36:22;8.90;;;7.13;;
3712;SDS011;1872;51.406;6.856;2023-04-24T10:38:51;10.57;;;6.90;;
3712;SDS011;1872;51.406;6.856;2023-04-24T10:41:19;11.90;;;6.70;;
3712;SDS011;1872;51.406;6.856;2023-04-24T10:43:48;12.30;;;6.50;;
3712;SDS011;1872;51.406;6.856;2023-04-24T10:46:29;7.50;;;6.17;;
3712;SDS011;1872;51.406;6.856;2023-04-24T10:48:55;10.63;;;6.30;;
3712;SDS011;1872;51.406;6.856;2023-04-24T10:51:23;10.50;;;6.27;;
3712;SDS011;1872;51.406;6.856;2023-04-24T10:53:50;9.03;;;6.50;;
3712;SDS011;1872;51.406;6.856;2023-04-24T10:56:16;7.80;;;6.13;;
3712;SDS011;1872;51.406;6.856;2023-04-24T11:01:22;10.67;;;7.13;;
3712;SDS011;1872;51.406;6.856;2023-04-24T11:03:59;10.33;;;7.27;;
3712;SDS011;1872;51.406;6.856;2023-04-24T11:06:34;10.60;;;6.10;;
3712;SDS011;1872;51.406;6.856;2023-04-24T11:09:05;11.23;;;6.60;;
3712;SDS011;1872;51.406;6.856;2023-04-24T11:11:32;9.27;;;7.10;;
3712;SDS011;1872;51.406;6.856;2023-04-24T11:19:25;10.80;;;7.33;;
3712;SDS011;1872;51.406;6.856;2023-04-24T11:21:58;7.20;;;5.93;;
3712;SDS011;1872;51.406;6.856;2023-04-24T11:27:22;15.17;;;6.80;;
3712;SDS011;1872;51.406;6.856;2023-04-24T11:34:58;7.07;;;6.37;;
3712;SDS011;1872;51.406;6.856;2023-04-24T11:40:03;6.47;;;5.13;;
3712;SDS011;1872;51.406;6.856;2023-04-24T11:42:33;8.93;;;5.30;;
3712;SDS011;1872;51.406;6.856;2023-04-24T11:47:39;6.53;;;4.90;;
3712;SDS011;1872;51.406;6.856;2023-04-24T11:50:06;4.90;;;4.40;;
3712;SDS011;1872;51.406;6.856;2023-04-24T11:52:36;6.70;;;4.70;;
3712;SDS011;1872;51.406;6.856;2023-04-24T11:55:03;8.33;;;5.20;;
3712;SDS011;1872;51.406;6.856;2023-04-24T11:57:29;6.47;;;4.83;;
3712;SDS011;1872;51.406;6.856;2023-04-24T12:00:01;5.90;;;4.77;;
3712;SDS011;1872;51.406;6.856;2023-04-24T12:02:28;7.60;;;6.17;;
3712;SDS011;1872;51.406;6.856;2023-04-24T12:04:54;8.00;;;5.83;;
3712;SDS011;1872;51.406;6.856;2023-04-24T12:07:20;8.23;;;6.00;;
3712;SDS011;1872;51.406;6.856;2023-04-24T12:09:47;7.23;;;5.20;;
3712;SDS011;1872;51.406;6.856;2023-04-24T12:12:23;7.73;;;5.43;;
3712;SDS011;1872;51.406;6.856;2023-04-24T12:14:54;7.00;;;5.10;;
3712;SDS011;1872;51.406;6.856;2023-04-24T12:17:28;8.33;;;6.00;;
3712;SDS011;1872;51.406;6.856;2023-04-24T12:20:03;6.17;;;4.83;;
3712;SDS011;1872;51.406;6.856;2023-04-24T12:25:13;5.80;;;4.43;;
3712;SDS011;1872;51.406;6.856;2023-04-24T12:27:40;4.90;;;3.70;;
3712;SDS011;1872;51.406;6.856;2023-04-24T12:30:12;4.67;;;3.00;;
3712;SDS011;1872;51.406;6.856;2023-04-24T12:32:57;4.37;;;3.47;;
3712;SDS011;1872;51.406;6.856;2023-04-24T12:35:26;4.97;;;3.50;;
3712;SDS011;1872;51.406;6.856;2023-04-24T12:37:53;3.90;;;3.13;;
3712;SDS011;1872;51.406;6.856;2023-04-24T12:40:20;6.50;;;3.83;;
3712;SDS011;1872;51.406;6.856;2023-04-24T12:42:47;4.17;;;3.10;;
3712;SDS011;1872;51.406;6.856;2023-04-24T12:45:15;5.47;;;3.83;;
3712;SDS011;1872;51.406;6.856;2023-04-24T12:47:41;4.07;;;3.70;;
3712;SDS011;1872;51.406;6.856;2023-04-24T12:50:09;4.60;;;3.43;;
3712;SDS011;1872;51.406;6.856;2023-04-24T12:52:36;3.63;;;2.97;;
3712;SDS011;1872;51.406;6.856;2023-04-24T12:55:02;4.07;;;3.30;;
3712;SDS011;1872;51.406;6.856;2023-04-24T12:57:29;3.70;;;3.40;;
3712;SDS011;1872;51.406;6.856;2023-04-24T12:59:56;3.70;;;3.33;;
3712;SDS011;1872;51.406;6.856;2023-04-24T13:02:23;3.43;;;3.13;;
3712;SDS011;1872;51.406;6.856;2023-04-24T13:04:50;3.97;;;3.23;;
3712;SDS011;1872;51.406;6.856;2023-04-24T13:07:16;2.77;;;2.53;;
3712;SDS011;1872;51.406;6.856;2023-04-24T13:09:42;3.10;;;2.87;;
3712;SDS011;1872;51.406;6.856;2023-04-24T13:12:09;3.23;;;2.77;;
3712;SDS011;1872;51.406;6.856;2023-04-24T13:14:35;2.90;;;2.60;;
3712;SDS011;1872;51.406;6.856;2023-04-24T13:17:02;2.77;;;2.43;;
3712;SDS011;1872;51.406;6.856;2023-04-24T13:19:28;2.70;;;2.50;;
3712;SDS011;1872;51.406;6.856;2023-04-24T13:21:54;3.03;;;2.80;;
3712;SDS011;1872;51.406;6.856;2023-04-24T13:24:24;2.73;;;2.53;;
3712;SDS011;1872;51.406;6.856;2023-04-24T13:26:51;2.40;;;2.30;;
3712;SDS011;1872;51.406;6.856;2023-04-24T13:29:17;2.67;;;2.47;;
3712;SDS011;1872;51.406;6.856;2023-04-24T13:31:43;2.67;;;2.47;;
3712;SDS011;1872;51.406;6.856;2023-04-24T13:34:09;7.77;;;4.40;;
3712;SDS011;1872;51.406;6.856;2023-04-24T13:36:35;4.30;;;2.90;;
3712;SDS011;1872;51.406;6.856;2023-04-24T13:39:01;3.27;;;2.17;;
3712;SDS011;1872;51.406;6.856;2023-04-24T13:41:30;2.80;;;2.60;;
3712;SDS011;1872;51.406;6.856;2023-04-24T13:43:58;3.07;;;2.60;;
3712;SDS011;1872;51.406;6.856;2023-04-24T13:46:23;4.10;;;2.60;;
3712;SDS011;1872;51.406;6.856;2023-04-24T13:48:49;4.27;;;2.70;;
3712;SDS011;1872;51.406;6.856;2023-04-24T13:51:15;3.83;;;2.63;;
3712;SDS011;1872;51.406;6.856;2023-04-24T13:53:40;5.30;;;2.63;;
3712;SDS011;1872;51.406;6.856;2023-04-24T13:56:06;4.00;;;2.50;;
3712;SDS011;1872;51.406;6.856;2023-04-24T13:58:32;2.47;;;2.30;;
3712;SDS011;1872;51.406;6.856;2023-04-24T14:00:58;2.67;;;2.43;;
3712;SDS011;1872;51.406;6.856;2023-04-24T14:03:24;2.57;;;2.37;;
3712;SDS011;1872;51.406;6.856;2023-04-24T14:05:49;2.80;;;2.60;;
3712;SDS011;1872;51.406;6.856;2023-04-24T14:08:15;2.60;;;2.20;;
3712;SDS011;1872;51.406;6.856;2023-04-24T14:10:41;2.50;;;2.30;;
3712;SDS011;1872;51.406;6.856;2023-04-24T14:13:07;2.07;;;1.97;;
3712;SDS011;1872;51.406;6.856;2023-04-24T14:15:35;2.00;;;1.90;;
3712;SDS011;1872;51.406;6.856;2023-04-24T14:18:01;3.70;;;2.83;;
3712;SDS011;1872;51.406;6.856;2023-04-24T14:20:28;2.77;;;2.50;;
3712;SDS011;1872;51.406;6.856;2023-04-24T14:22:54;2.97;;;2.30;;
3712;SDS011;1872;51.406;6.856;2023-04-24T14:25:20;2.00;;;1.90;;
3712;SDS011;1872;51.406;6.856;2023-04-24T14:27:47;2.80;;;2.20;;
3712;SDS011;1872;51.406;6.856;2023-04-24T14:30:13;2.27;;;2.17;;
3712;SDS011;1872;51.406;6.856;2023-04-24T14:32:40;3.30;;;2.67;;
3712;SDS011;1872;51.406;6.856;2023-04-24T14:35:06;3.33;;;2.23;;
3712;SDS011;1872;51.406;6.856;2023-04-24T14:37:32;2.73;;;2.33;;
3712;SDS011;1872;51.406;6.856;2023-04-24T14:39:58;2.80;;;2.30;;
3712;SDS011;1872;51.406;6.856;2023-04-24T14:42:23;2.40;;;2.30;;
3712;SDS011;1872;51.406;6.856;2023-04-24T14:44:49;3.33;;;3.03;;
3712;SDS011;1872;51.406;6.856;2023-04-24T14:47:15;4.30;;;2.50;;
3712;SDS011;1872;51.406;6.856;2023-04-24T14:49:42;2.10;;;2.00;;
3712;SDS011;1872;51.406;6.856;2023-04-24T14:52:09;3.40;;;2.40;;
3712;SDS011;1872;51.406;6.856;2023-04-24T14:54:35;2.40;;;2.20;;
3712;SDS011;1872;51.406;6.856;2023-04-24T14:57:00;2.70;;;2.50;;
3712;SDS011;1872;51.406;6.856;2023-04-24T14:59:26;2.30;;;2.00;;
3712;SDS011;1872;51.406;6.856;2023-04-24T15:01:53;3.00;;;2.80;;
3712;SDS011;1872;51.406;6.856;2023-04-24T15:04:22;2.67;;;2.47;;
3712;SDS011;1872;51.406;6.856;2023-04-24T15:06:50;3.10;;;2.50;;
3712;SDS011;1872;51.406;6.856;2023-04-24T15:09:19;3.33;;;2.10;;
3712;SDS011;1872;51.406;6.856;2023-04-24T15:11:47;2.20;;;2.10;;
3712;SDS011;1872;51.406;6.856;2023-04-24T15:14:13;2.67;;;2.33;;
3712;SDS011;1872;51.406;6.856;2023-04-24T15:16:39;4.13;;;2.53;;
3712;SDS011;1872;51.406;6.856;2023-04-24T15:19:05;2.87;;;2.60;;
3712;SDS011;1872;51.406;6.856;2023-04-24T15:21:31;3.33;;;2.93;;
3712;SDS011;1872;51.406;6.856;2023-04-24T15:23:57;3.47;;;2.77;;
3712;SDS011;1872;51.406;6.856;2023-04-24T15:26:23;3.47;;;3.13;;
3712;SDS011;1872;51.406;6.856;2023-04-24T15:28:49;2.70;;;2.37;;